createdAt,value
2023-02-04T00:00:50.101Z,79.08
2023-02-04T00:03:31.455Z,78.83
2023-02-04T00:06:00.330Z,79.06
2023-02-04T00:08:29.246Z,79.44
2023-02-04T00:10:59.059Z,79.58
2023-02-04T00:13:28.268Z,79.76
2023-02-04T00:15:57.081Z,79.22
2023-02-04T00:18:26.063Z,78.99
2023-02-04T00:20:55.444Z,78.88
2023-02-04T00:23:25.196Z,78.65
2023-02-04T00:25:54.294Z,78.89
2023-02-04T00:28:23.999Z,78.78
2023-02-04T00:30:53.202Z,79.05
2023-02-04T00:33:23.187Z,78.91
2023-02-04T00:35:52.582Z,78.83
2023-02-04T00:38:23.460Z,78.57
2023-02-04T00:40:52.463Z,77.90
2023-02-04T00:43:21.347Z,77.94
2023-02-04T00:45:50.645Z,77.91
2023-02-04T00:48:19.648Z,77.59
2023-02-04T00:50:49.353Z,77.83
2023-02-04T00:53:18.161Z,78.14
2023-02-04T00:55:47.758Z,78.14
2023-02-04T00:58:17.755Z,78.68
2023-02-04T01:00:47.409Z,78.51
2023-02-04T01:03:17.043Z,78.97
2023-02-04T01:05:46.064Z,78.92
2023-02-04T01:08:15.339Z,78.78
2023-02-04T01:10:44.489Z,78.70
2023-02-04T01:13:13.468Z,78.39
2023-02-04T01:15:42.787Z,78.07
2023-02-04T01:18:13.290Z,78.62
2023-02-04T01:20:42.565Z,79.22
2023-02-04T01:23:11.772Z,79.77
2023-02-04T01:25:40.875Z,79.86
2023-02-04T01:28:10.190Z,79.44
2023-02-04T01:30:38.969Z,79.52
2023-02-04T01:33:08.527Z,79.11
2023-02-04T01:35:37.360Z,79.64
2023-02-04T01:38:06.046Z,79.43
2023-02-04T01:40:35.191Z,79.65
2023-02-04T01:43:04.589Z,79.67
2023-02-04T01:45:35.001Z,79.10
2023-02-04T01:48:06.498Z,78.83
2023-02-04T01:50:36.636Z,78.58
2023-02-04T01:53:06.101Z,78.55
2023-02-04T01:55:35.423Z,78.90
2023-02-04T01:58:05.121Z,79.17
2023-02-04T02:00:35.000Z,79.73
2023-02-04T02:03:05.080Z,79.86
2023-02-04T02:05:38.861Z,79.84
2023-02-04T02:08:09.795Z,79.88
2023-02-04T02:10:44.336Z,80.10
2023-02-04T02:13:15.660Z,81.06
2023-02-04T02:15:45.623Z,81.14
2023-02-04T02:18:15.747Z,81.42
2023-02-04T02:20:46.076Z,81.33
2023-02-04T02:23:25.411Z,81.29
2023-02-04T02:25:54.610Z,80.94
2023-02-04T02:28:24.237Z,81.17
2023-02-04T02:30:53.789Z,81.53
2023-02-04T02:33:25.633Z,82.01
2023-02-04T02:35:54.673Z,82.30
2023-02-04T02:38:23.846Z,82.34
2023-02-04T02:40:52.984Z,82.55
2023-02-04T02:43:26.934Z,82.56
2023-02-04T02:45:59.109Z,82.62
2023-02-04T02:48:28.269Z,82.10
2023-02-04T02:50:57.807Z,82.34
2023-02-04T02:53:27.105Z,82.36
2023-02-04T02:55:56.620Z,82.73
2023-02-04T02:58:28.881Z,83.19
2023-02-04T03:00:59.575Z,82.95
2023-02-04T03:03:32.591Z,82.82
2023-02-04T03:06:05.336Z,82.70
2023-02-04T03:08:35.250Z,82.83
2023-02-04T03:11:04.487Z,82.74
2023-02-04T03:13:34.273Z,82.83
2023-02-04T03:16:04.013Z,82.97
2023-02-04T03:18:34.240Z,83.35
2023-02-04T03:21:06.110Z,83.12
2023-02-04T03:23:36.454Z,82.68
2023-02-04T03:26:06.961Z,82.91
2023-02-04T03:28:40.892Z,83.13
2023-02-04T03:31:10.465Z,83.43
2023-02-04T03:33:39.367Z,83.19
2023-02-04T03:36:09.612Z,83.00
2023-02-04T03:38:38.392Z,82.38
2023-02-04T03:41:07.592Z,81.76
2023-02-04T03:43:36.632Z,81.26
2023-02-04T03:46:06.206Z,81.53
2023-02-04T03:48:35.701Z,81.56
2023-02-04T03:51:05.745Z,81.72
2023-02-04T03:53:35.226Z,81.56
2023-02-04T03:56:05.149Z,81.12
2023-02-04T03:58:34.553Z,80.80
2023-02-04T04:01:03.935Z,80.40
2023-02-04T04:03:32.690Z,80.52
2023-02-04T04:06:04.860Z,80.67
2023-02-04T04:08:33.881Z,80.44
2023-02-04T04:11:03.001Z,80.07
2023-02-04T04:13:32.035Z,80.02
2023-02-04T04:16:03.117Z,79.95
2023-02-04T04:18:32.628Z,79.96
2023-02-04T04:21:02.202Z,79.74
2023-02-04T04:23:30.849Z,79.36
2023-02-04T04:25:59.574Z,79.18
2023-02-04T04:28:28.368Z,79.37
2023-02-04T04:30:57.223Z,79.60
2023-02-04T04:33:26.065Z,79.46
2023-02-04T04:35:54.855Z,79.29
2023-02-04T04:38:23.677Z,79.18
2023-02-04T04:40:53.934Z,78.81
2023-02-04T04:43:21.758Z,79.27
2023-02-04T04:45:51.097Z,79.14
2023-02-04T04:48:21.065Z,79.19
2023-02-04T04:50:50.119Z,79.20
2023-02-04T04:53:19.103Z,79.06
2023-02-04T04:55:48.371Z,78.64
2023-02-04T04:58:17.768Z,79.03
2023-02-04T05:00:47.715Z,79.37
2023-02-04T05:03:16.631Z,79.33
2023-02-04T05:05:45.652Z,79.32
2023-02-04T05:08:16.487Z,78.88
2023-02-04T05:10:45.831Z,78.87
2023-02-04T05:13:15.705Z,79.00
2023-02-04T05:15:44.639Z,78.97
2023-02-04T05:18:13.850Z,79.28
2023-02-04T05:20:43.266Z,78.68
2023-02-04T05:23:12.240Z,78.47
2023-02-04T05:25:41.192Z,78.13
2023-02-04T05:28:10.448Z,78.25
2023-02-04T05:30:39.449Z,78.54
2023-02-04T05:33:08.152Z,78.55
2023-02-04T05:35:37.546Z,78.73
2023-02-04T05:38:06.453Z,78.23
2023-02-04T05:40:35.906Z,78.03
2023-02-04T05:43:04.710Z,77.92
2023-02-04T05:45:34.360Z,77.52
2023-02-04T05:48:03.607Z,77.43
2023-02-04T05:50:33.152Z,78.03
2023-02-04T05:53:11.536Z,78.11
2023-02-04T05:55:41.075Z,77.80
2023-02-04T05:58:10.133Z,77.70
2023-02-04T06:00:39.633Z,77.66
2023-02-04T06:03:08.781Z,77.73
2023-02-04T06:05:38.026Z,78.30
2023-02-04T06:08:07.284Z,78.48
2023-02-04T06:10:36.213Z,78.23
2023-02-04T06:13:04.855Z,78.25
2023-02-04T06:15:33.903Z,78.18
2023-02-04T06:18:03.004Z,77.56
2023-02-04T06:20:32.264Z,77.77
2023-02-04T06:23:02.008Z,78.07
2023-02-04T06:25:31.664Z,77.98
2023-02-04T06:28:00.669Z,77.89
2023-02-04T06:30:29.779Z,77.58
2023-02-04T06:32:58.948Z,77.18
2023-02-04T06:35:28.296Z,76.85
2023-02-04T06:37:57.803Z,76.69
2023-02-04T06:40:26.723Z,77.38
2023-02-04T06:42:55.896Z,77.18
2023-02-04T06:45:25.060Z,76.98
2023-02-04T06:47:53.873Z,76.93
2023-02-04T06:50:22.736Z,76.25
2023-02-04T06:52:51.986Z,76.43
2023-02-04T06:55:20.965Z,76.52
2023-02-04T06:57:50.082Z,76.84
2023-02-04T07:00:19.859Z,76.69
2023-02-04T07:02:48.801Z,76.49
2023-02-04T07:05:19.664Z,76.42
2023-02-04T07:07:47.759Z,76.09
2023-02-04T07:10:17.889Z,75.87
2023-02-04T07:12:47.174Z,75.78
2023-02-04T07:15:16.421Z,76.53
2023-02-04T07:17:45.322Z,76.66
2023-02-04T07:20:14.784Z,76.49
2023-02-04T07:22:43.715Z,75.76
2023-02-04T07:25:14.543Z,75.66
2023-02-04T07:27:43.719Z,75.52
2023-02-04T07:30:14.772Z,75.49
2023-02-04T07:32:43.970Z,75.12
2023-02-04T07:35:13.341Z,75.46
2023-02-04T07:37:43.047Z,75.79
2023-02-04T07:40:13.319Z,75.90
2023-02-04T07:42:42.206Z,75.79
2023-02-04T07:45:13.915Z,75.66
2023-02-04T07:47:43.047Z,75.47
2023-02-04T07:50:12.542Z,75.10
2023-02-04T07:52:41.614Z,75.03
2023-02-04T07:55:11.322Z,75.12
2023-02-04T07:57:40.234Z,75.65
2023-02-04T08:00:13.603Z,76.14
2023-02-04T08:02:43.056Z,75.48
2023-02-04T08:05:12.464Z,75.19
2023-02-04T08:07:42.078Z,74.96
2023-02-04T08:10:12.767Z,74.96
2023-02-04T08:12:41.867Z,74.72
2023-02-04T08:15:11.035Z,74.80
2023-02-04T08:17:40.135Z,75.39
2023-02-04T08:20:10.898Z,75.49
2023-02-04T08:22:40.415Z,75.21
2023-02-04T08:25:11.231Z,75.06
2023-02-04T08:27:40.602Z,74.97
2023-02-04T08:30:11.604Z,74.65
2023-02-04T08:32:40.753Z,74.43
2023-02-04T08:35:10.536Z,74.42
2023-02-04T08:37:40.609Z,74.59
2023-02-04T08:40:12.000Z,74.80
2023-02-04T08:42:41.052Z,74.55
2023-02-04T08:45:11.143Z,74.54
2023-02-04T08:47:39.946Z,73.95
2023-02-04T08:50:10.628Z,74.13
2023-02-04T08:52:39.468Z,73.78
2023-02-04T08:55:10.443Z,74.10
2023-02-04T08:57:39.611Z,74.12
2023-02-04T09:00:11.669Z,74.34
2023-02-04T09:02:41.018Z,74.86
2023-02-04T09:05:09.882Z,74.59
2023-02-04T09:07:39.817Z,74.12
2023-02-04T09:10:09.423Z,73.76
2023-02-04T09:12:38.613Z,73.08
2023-02-04T09:15:10.252Z,73.12
2023-02-04T09:17:39.767Z,72.53
2023-02-04T09:20:10.236Z,72.56
2023-02-04T09:22:39.321Z,72.43
2023-02-04T09:25:09.710Z,72.69
2023-02-04T09:27:37.793Z,72.77
2023-02-04T09:30:08.546Z,73.11
2023-02-04T09:32:37.300Z,72.95
2023-02-04T09:35:07.231Z,72.31
2023-02-04T09:37:36.521Z,71.93
2023-02-04T09:40:06.946Z,72.09
2023-02-04T09:42:35.875Z,72.08
2023-02-04T09:45:06.630Z,72.22
2023-02-04T09:47:38.012Z,70.89
2023-02-04T09:50:14.518Z,70.49
2023-02-04T09:52:43.795Z,70.73
2023-02-04T09:55:17.434Z,70.36
2023-02-04T09:57:49.174Z,69.92
2023-02-04T10:00:22.317Z,70.51
2023-02-04T10:02:51.842Z,70.50
2023-02-04T10:05:27.802Z,69.52
2023-02-04T10:07:58.639Z,69.49
2023-02-04T10:10:30.019Z,69.20
2023-02-04T10:13:03.300Z,69.15
2023-02-04T10:15:33.466Z,68.33
2023-02-04T10:18:03.646Z,68.22
2023-02-04T10:20:33.245Z,68.31
2023-02-04T10:23:02.833Z,67.60
2023-02-04T10:25:39.014Z,67.42
2023-02-04T10:28:08.148Z,67.68
2023-02-04T10:30:43.048Z,67.02
2023-02-04T10:33:25.658Z,67.38
2023-02-04T10:35:57.849Z,66.73
2023-02-04T10:38:26.912Z,66.70
2023-02-04T10:41:02.420Z,67.09
2023-02-04T10:43:33.893Z,66.97
2023-02-04T10:46:08.258Z,66.67
2023-02-04T10:48:42.968Z,66.01
2023-02-04T10:51:14.106Z,65.41
2023-02-04T10:54:04.719Z,65.86
2023-02-04T10:56:34.427Z,66.18
2023-02-04T10:59:07.517Z,65.85
2023-02-04T11:01:37.991Z,66.09
2023-02-04T11:04:11.758Z,66.00
2023-02-04T11:06:42.635Z,65.93
2023-02-04T11:09:14.895Z,65.86
2023-02-04T11:11:48.699Z,64.95
2023-02-04T11:14:29.990Z,64.92
2023-02-04T11:17:01.744Z,64.51
2023-02-04T11:19:37.555Z,64.17
2023-02-04T11:22:23.489Z,64.58
2023-02-04T11:24:52.384Z,65.60
2023-02-04T11:27:26.149Z,64.42
2023-02-04T11:30:18.623Z,64.14
2023-02-04T11:33:01.530Z,64.69
2023-02-04T11:35:32.320Z,64.92
2023-02-04T11:38:02.391Z,64.61
2023-02-04T11:40:33.916Z,64.73
2023-02-04T11:43:09.598Z,64.86
2023-02-04T11:45:39.456Z,65.30
2023-02-04T11:48:16.176Z,64.55
2023-02-04T11:50:56.568Z,64.64
2023-02-04T11:53:28.612Z,64.39
2023-02-04T11:55:58.231Z,64.03
2023-02-04T11:58:30.866Z,63.62
2023-02-04T12:01:00.408Z,64.26
2023-02-04T12:03:31.507Z,64.74
2023-02-04T12:06:01.292Z,64.67
2023-02-04T12:08:35.885Z,64.42
2023-02-04T12:11:10.718Z,63.92
2023-02-04T12:13:49.876Z,63.85
2023-02-04T12:16:19.643Z,63.92
2023-02-04T12:18:49.159Z,64.67
2023-02-04T12:21:18.833Z,64.64
2023-02-04T12:23:47.662Z,64.35
2023-02-04T12:26:17.172Z,64.34
2023-02-04T12:28:46.553Z,64.63
2023-02-04T12:31:16.180Z,64.55
2023-02-04T12:33:46.088Z,64.70
2023-02-04T12:36:15.096Z,64.36
2023-02-04T12:38:44.487Z,64.08
2023-02-04T12:41:13.633Z,63.41
2023-02-04T12:43:43.006Z,64.23
2023-02-04T12:46:12.130Z,64.62
2023-02-04T12:48:41.147Z,64.32
2023-02-04T12:51:10.596Z,64.91
2023-02-04T12:53:40.042Z,64.68
2023-02-04T12:56:09.133Z,64.95
2023-02-04T12:58:38.387Z,64.84
2023-02-04T13:01:07.910Z,65.04
2023-02-04T13:03:37.001Z,65.48
2023-02-04T13:06:07.107Z,65.74
2023-02-04T13:08:35.002Z,66.68
2023-02-04T13:11:05.562Z,66.27
2023-02-04T13:13:35.007Z,66.07
2023-02-04T13:16:04.662Z,65.61
2023-02-04T13:18:33.925Z,64.69
2023-02-04T13:21:03.229Z,65.31
2023-02-04T13:23:31.918Z,65.62
2023-02-04T13:26:01.140Z,66.16
2023-02-04T13:28:30.807Z,66.06
2023-02-04T13:30:59.933Z,66.14
2023-02-04T13:33:29.382Z,65.76
2023-02-04T13:35:58.633Z,66.13
2023-02-04T13:38:28.134Z,67.69
2023-02-04T13:40:57.466Z,68.59
2023-02-04T13:43:26.690Z,68.49
2023-02-04T13:45:57.322Z,68.67
2023-02-04T13:48:26.259Z,68.32
2023-02-04T13:50:55.134Z,68.22
2023-02-04T13:53:30.345Z,68.20
2023-02-04T13:56:00.970Z,68.15
2023-02-04T13:58:29.996Z,66.83
2023-02-04T14:00:59.159Z,64.79
2023-02-04T14:03:30.095Z,61.27
2023-02-04T14:05:59.727Z,57.49
2023-02-04T14:08:27.787Z,54.71
2023-02-04T14:10:57.189Z,50.17
2023-02-04T14:13:26.460Z,47.69
2023-02-04T14:15:54.648Z,48.84
2023-02-04T14:18:23.304Z,48.76
2023-02-04T14:20:52.456Z,49.32
2023-02-04T14:23:21.590Z,51.74
2023-02-04T14:25:50.510Z,53.47
2023-02-04T14:28:20.121Z,54.67
2023-02-04T14:30:49.124Z,56.26
2023-02-04T14:33:18.304Z,56.01
2023-02-04T14:35:47.734Z,57.37
2023-02-04T14:38:18.010Z,57.82
2023-02-04T14:40:47.242Z,57.85
2023-02-04T14:43:16.246Z,58.01
2023-02-04T14:45:45.733Z,58.79
2023-02-04T14:48:14.734Z,58.62
2023-02-04T14:50:43.813Z,58.58
2023-02-04T14:53:12.802Z,58.97
2023-02-04T14:55:42.284Z,60.98
2023-02-04T14:58:11.229Z,61.34
2023-02-04T15:00:40.140Z,62.14
2023-02-04T15:03:10.046Z,64.57
2023-02-04T15:05:39.945Z,66.13
2023-02-04T15:08:09.240Z,66.44
2023-02-04T15:10:38.300Z,65.95
2023-02-04T15:13:08.337Z,66.54
2023-02-04T15:15:37.334Z,66.97
2023-02-04T15:18:07.046Z,66.75
2023-02-04T15:20:36.044Z,67.11
2023-02-04T15:23:05.277Z,66.87
2023-02-04T15:25:34.448Z,66.72
2023-02-04T15:28:03.518Z,66.76
2023-02-04T15:30:32.836Z,67.45
2023-02-04T15:33:02.071Z,67.59
2023-02-04T15:35:31.677Z,67.21
2023-02-04T15:38:00.880Z,67.32
2023-02-04T15:40:29.860Z,67.45
2023-02-04T15:42:59.125Z,67.34
2023-02-04T15:45:28.894Z,67.17
2023-02-04T15:47:57.443Z,66.75
2023-02-04T15:50:26.848Z,67.25
2023-02-04T15:52:55.764Z,66.92
2023-02-04T15:55:25.552Z,66.81
2023-02-04T15:57:55.456Z,66.59
2023-02-04T16:00:24.963Z,67.16
2023-02-04T16:02:53.982Z,67.44
2023-02-04T16:05:23.079Z,67.97
2023-02-04T16:07:51.960Z,68.14
2023-02-04T16:10:21.413Z,68.04
2023-02-04T16:12:50.802Z,67.81
2023-02-04T16:15:20.386Z,67.47
2023-02-04T16:17:50.517Z,67.16
2023-02-04T16:20:18.651Z,67.14
2023-02-04T16:22:48.133Z,66.89
2023-02-04T16:25:18.007Z,66.72
2023-02-04T16:27:47.223Z,66.91
2023-02-04T16:30:17.287Z,67.05
2023-02-04T16:32:46.820Z,67.24
2023-02-04T16:35:16.482Z,66.98
2023-02-04T16:37:45.712Z,67.15
2023-02-04T16:40:15.332Z,67.11
2023-02-04T16:42:44.214Z,67.37
2023-02-04T16:45:13.525Z,67.73
2023-02-04T16:47:42.508Z,67.79
2023-02-04T16:50:12.526Z,67.63
2023-02-04T16:52:41.208Z,67.76
2023-02-04T16:55:11.659Z,67.96
2023-02-04T16:57:42.770Z,68.21
2023-02-04T17:00:14.638Z,68.64
2023-02-04T17:02:44.383Z,69.37
2023-02-04T17:05:14.024Z,69.70
2023-02-04T17:07:43.016Z,69.81
2023-02-04T17:10:12.410Z,69.32
2023-02-04T17:12:41.403Z,69.10
2023-02-04T17:15:13.214Z,68.55
2023-02-04T17:17:42.772Z,68.29
2023-02-04T17:20:12.842Z,68.21
2023-02-04T17:22:41.958Z,67.98
2023-02-04T17:25:11.512Z,67.75
2023-02-04T17:27:40.307Z,67.80
2023-02-04T17:30:12.297Z,67.74
2023-02-04T17:32:41.643Z,67.74
2023-02-04T17:35:12.287Z,67.76
2023-02-04T17:37:40.147Z,67.74
2023-02-04T17:40:12.752Z,67.78
2023-02-04T17:42:42.009Z,67.52
2023-02-04T17:45:12.310Z,67.57
2023-02-04T17:47:42.173Z,67.88
2023-02-04T17:50:12.713Z,68.06
2023-02-04T17:52:41.792Z,68.41
2023-02-04T17:55:21.799Z,68.91
2023-02-04T17:57:50.729Z,69.74
2023-02-04T18:00:22.969Z,70.28
2023-02-04T18:02:53.658Z,70.33
2023-02-04T18:05:26.928Z,71.03
2023-02-04T18:08:00.476Z,70.48
2023-02-04T18:10:33.171Z,70.46
2023-02-04T18:13:10.004Z,70.99
2023-02-04T18:15:39.198Z,70.95
2023-02-04T18:18:21.309Z,71.74
2023-02-04T18:20:59.029Z,72.31
2023-02-04T18:23:29.819Z,72.06
2023-02-04T18:26:12.024Z,72.21
2023-02-04T18:28:46.846Z,71.77
2023-02-04T18:31:34.745Z,71.78
2023-02-04T18:34:19.979Z,71.34
2023-02-04T18:36:49.887Z,71.80
2023-02-04T18:39:27.232Z,72.29
2023-02-04T18:41:56.842Z,72.87
2023-02-04T18:44:33.952Z,73.10
2023-02-04T18:47:09.241Z,72.63
2023-02-04T18:49:42.516Z,72.78
2023-02-04T18:52:19.888Z,72.29
2023-02-04T18:54:51.134Z,72.21
2023-02-04T18:57:39.202Z,72.05
2023-02-04T19:00:33.892Z,71.77
2023-02-04T19:03:20.206Z,71.53
2023-02-04T19:05:50.418Z,71.52
2023-02-04T19:08:21.938Z,71.78
2023-02-04T19:10:51.862Z,71.83
2023-02-04T19:13:25.331Z,71.98
2023-02-04T19:15:59.378Z,71.91
2023-02-04T19:18:33.323Z,71.66
2023-02-04T19:21:21.804Z,71.57
2023-02-04T19:23:53.565Z,71.27
2023-02-04T19:26:42.143Z,71.25
2023-02-04T19:29:38.000Z,71.30
2023-02-04T19:32:27.263Z,71.54
2023-02-04T19:34:57.438Z,71.48
2023-02-04T19:37:27.961Z,71.81
2023-02-04T19:39:57.102Z,72.30
2023-02-04T19:42:32.544Z,72.28
2023-02-04T19:45:11.250Z,71.78
2023-02-04T19:47:43.196Z,71.61
2023-02-04T19:50:25.716Z,71.40
2023-02-04T19:52:57.382Z,71.39
2023-02-04T19:55:29.566Z,70.79
2023-02-04T19:58:01.711Z,70.72
2023-02-04T20:00:46.761Z,70.72
2023-02-04T20:03:36.352Z,71.43
2023-02-04T20:06:26.884Z,72.08
2023-02-04T20:09:04.476Z,71.67
2023-02-04T20:11:44.603Z,71.25
2023-02-04T20:14:50.495Z,71.12
2023-02-04T20:17:45.362Z,70.84
2023-02-04T20:20:25.530Z,70.79
2023-02-04T20:22:56.462Z,70.76
2023-02-04T20:25:39.398Z,70.46
2023-02-04T20:28:35.632Z,71.10
2023-02-04T20:31:24.706Z,72.22
2023-02-04T20:33:56.941Z,72.26
2023-02-04T20:36:40.328Z,71.99
2023-02-04T20:39:44.498Z,71.84
2023-02-04T20:42:33.348Z,71.85
2023-02-04T20:45:10.022Z,71.52
2023-02-04T20:47:39.238Z,71.25
2023-02-04T20:50:33.145Z,71.05
2023-02-04T20:53:16.997Z,71.24
2023-02-04T20:55:48.601Z,71.41
2023-02-04T20:58:20.253Z,72.05
2023-02-04T21:00:53.368Z,72.34
2023-02-04T21:03:33.703Z,72.33
2023-02-04T21:06:27.150Z,72.07
2023-02-04T21:08:58.233Z,71.87
2023-02-04T21:11:27.516Z,71.67
2023-02-04T21:13:56.362Z,71.50
2023-02-04T21:16:25.304Z,71.47
2023-02-04T21:18:54.160Z,71.24
2023-02-04T21:21:24.046Z,71.48
2023-02-04T21:23:52.950Z,72.07
2023-02-04T21:26:22.475Z,72.51
2023-02-04T21:28:51.355Z,72.28
2023-02-04T21:31:20.915Z,72.17
2023-02-04T21:33:49.930Z,71.82
2023-02-04T21:36:19.410Z,71.84
2023-02-04T21:38:48.551Z,71.75
2023-02-04T21:41:20.098Z,71.45
2023-02-04T21:43:49.799Z,71.58
2023-02-04T21:46:19.519Z,71.65
2023-02-04T21:48:48.320Z,71.54
2023-02-04T21:51:17.162Z,71.61
2023-02-04T21:53:46.103Z,72.07
2023-02-04T21:56:15.053Z,72.48
2023-02-04T21:58:43.833Z,72.34
2023-02-04T22:01:12.777Z,72.19
2023-02-04T22:03:41.520Z,72.08
2023-02-04T22:06:10.933Z,72.03
2023-02-04T22:08:39.790Z,71.82
2023-02-04T22:11:08.719Z,71.76
2023-02-04T22:13:38.001Z,71.80
2023-02-04T22:16:06.788Z,71.66
2023-02-04T22:18:36.008Z,71.53
2023-02-04T22:21:05.215Z,72.19
2023-02-04T22:23:34.117Z,72.46
2023-02-04T22:26:02.942Z,72.79
2023-02-04T22:28:31.719Z,72.27
2023-02-04T22:31:01.013Z,72.18
2023-02-04T22:33:30.423Z,71.98
2023-02-04T22:35:59.321Z,71.72
2023-02-04T22:38:28.165Z,71.62
2023-02-04T22:40:57.089Z,71.36
2023-02-04T22:43:25.877Z,71.17
2023-02-04T22:45:54.807Z,71.21
2023-02-04T22:48:23.934Z,70.99
2023-02-04T22:50:52.723Z,70.97
2023-02-04T22:53:21.741Z,71.18
2023-02-04T22:55:50.728Z,71.00
2023-02-04T22:58:19.808Z,70.92
2023-02-04T23:00:48.921Z,71.17
2023-02-04T23:03:17.803Z,71.27
2023-02-04T23:05:47.521Z,71.10
2023-02-04T23:08:17.309Z,71.56
2023-02-04T23:10:46.541Z,72.23
2023-02-04T23:13:16.058Z,72.17
2023-02-04T23:15:45.125Z,72.30
2023-02-04T23:18:14.519Z,71.81
2023-02-04T23:20:44.271Z,71.76
2023-02-04T23:23:17.018Z,71.54
2023-02-04T23:25:46.833Z,71.50
2023-02-04T23:28:16.864Z,71.19
2023-02-04T23:30:46.017Z,71.11
2023-02-04T23:33:15.178Z,71.35
2023-02-04T23:35:44.144Z,71.28
2023-02-04T23:38:13.180Z,71.35
2023-02-04T23:40:42.236Z,71.25
2023-02-04T23:43:11.501Z,71.47
2023-02-04T23:45:40.471Z,71.63
2023-02-04T23:48:09.173Z,71.83
2023-02-04T23:50:38.333Z,71.65
2023-02-04T23:53:07.097Z,72.09
2023-02-04T23:55:36.271Z,72.92
2023-02-04T23:58:06.010Z,73.39
